createdAt,value
2022-10-09T00:02:00.629Z,86.71
2022-10-09T00:06:03.518Z,86.57
2022-10-09T00:10:05.922Z,86.70
2022-10-09T00:14:07.822Z,86.84
2022-10-09T00:18:12.011Z,86.86
2022-10-09T00:22:13.841Z,86.85
2022-10-09T00:26:16.375Z,86.95
2022-10-09T00:30:18.266Z,86.98
2022-10-09T00:34:20.148Z,86.94
2022-10-09T00:38:21.968Z,86.86
2022-10-09T00:42:26.009Z,86.98
2022-10-09T00:46:47.914Z,87.05
2022-10-09T00:50:54.112Z,87.02
2022-10-09T00:54:56.923Z,87.20
2022-10-09T00:58:59.489Z,87.37
2022-10-09T01:03:01.403Z,87.47
2022-10-09T01:07:13.328Z,87.69
2022-10-09T01:12:00.367Z,87.55
2022-10-09T01:16:28.362Z,87.59
2022-10-09T01:20:39.178Z,87.77
2022-10-09T01:24:47.860Z,87.87
2022-10-09T01:28:58.978Z,88.05
2022-10-09T01:33:02.668Z,88.33
2022-10-09T01:37:07.208Z,88.43
2022-10-09T01:41:09.701Z,88.52
2022-10-09T01:45:13.882Z,88.49
2022-10-09T01:49:36.806Z,88.49
2022-10-09T01:53:39.644Z,88.38
2022-10-09T01:57:56.719Z,88.28
2022-10-09T02:02:00.312Z,88.07
2022-10-09T02:06:05.716Z,88.09
2022-10-09T02:10:08.966Z,87.98
2022-10-09T02:14:11.480Z,87.95
2022-10-09T02:18:18.836Z,88.09
2022-10-09T02:22:31.925Z,88.03
2022-10-09T02:26:34.169Z,88.12
2022-10-09T02:31:19.273Z,88.25
2022-10-09T02:35:21.570Z,88.42
2022-10-09T02:39:23.508Z,88.44
2022-10-09T02:43:25.528Z,88.39
2022-10-09T02:47:27.367Z,88.46
2022-10-09T02:51:29.197Z,88.47
2022-10-09T02:55:31.032Z,88.49
2022-10-09T02:59:32.961Z,88.44
2022-10-09T03:03:35.176Z,88.43
2022-10-09T03:07:37.246Z,88.54
2022-10-09T03:11:39.074Z,88.58
2022-10-09T03:15:41.009Z,88.51
2022-10-09T03:19:42.973Z,88.50
2022-10-09T03:23:45.191Z,88.50
2022-10-09T03:27:47.021Z,88.45
2022-10-09T03:31:53.330Z,88.21
2022-10-09T03:35:55.672Z,88.09
2022-10-09T03:39:58.408Z,88.03
2022-10-09T03:44:00.429Z,88.00
2022-10-09T03:48:02.624Z,88.04
2022-10-09T03:52:04.486Z,88.24
2022-10-09T03:56:06.525Z,88.45
2022-10-09T04:00:10.105Z,88.57
2022-10-09T04:04:11.937Z,88.47
2022-10-09T04:08:14.277Z,88.69
2022-10-09T04:12:16.203Z,88.67
2022-10-09T04:16:18.153Z,88.93
2022-10-09T04:20:21.038Z,88.79
2022-10-09T04:24:22.942Z,88.52
2022-10-09T04:28:26.490Z,88.59
2022-10-09T04:32:28.410Z,88.59
2022-10-09T04:36:30.289Z,88.57
2022-10-09T04:40:32.093Z,88.88
2022-10-09T04:44:33.960Z,88.49
2022-10-09T04:48:40.188Z,88.56
2022-10-09T04:52:42.030Z,88.59
2022-10-09T04:56:43.957Z,88.62
2022-10-09T05:00:46.273Z,88.74
2022-10-09T05:04:48.248Z,88.89
2022-10-09T05:08:51.024Z,89.06
2022-10-09T05:12:53.254Z,89.01
2022-10-09T05:17:12.888Z,89.20
2022-10-09T05:21:16.609Z,89.43
2022-10-09T05:25:18.469Z,89.57
2022-10-09T05:29:20.473Z,89.64
2022-10-09T05:33:22.454Z,89.56
2022-10-09T05:37:24.313Z,89.67
2022-10-09T05:41:26.434Z,89.75
2022-10-09T05:45:28.285Z,89.70
2022-10-09T05:49:30.157Z,89.90
2022-10-09T05:53:32.195Z,89.83
2022-10-09T05:57:34.111Z,89.84
2022-10-09T06:01:39.035Z,89.93
2022-10-09T06:05:40.908Z,89.90
2022-10-09T06:09:42.897Z,89.83
2022-10-09T06:13:45.658Z,89.91
2022-10-09T06:17:47.580Z,89.87
2022-10-09T06:21:50.218Z,90.00
2022-10-09T06:25:57.833Z,89.98
2022-10-09T06:29:59.652Z,90.13
2022-10-09T06:34:02.900Z,90.24
2022-10-09T06:38:04.845Z,90.25
2022-10-09T06:42:06.694Z,89.99
2022-10-09T06:46:23.363Z,89.91
2022-10-09T06:50:25.269Z,89.74
2022-10-09T06:54:27.162Z,89.76
2022-10-09T06:58:29.330Z,89.69
2022-10-09T07:02:34.104Z,89.65
2022-10-09T07:06:41.762Z,89.29
2022-10-09T07:10:43.585Z,89.24
2022-10-09T07:14:45.515Z,89.32
2022-10-09T07:18:47.765Z,88.96
2022-10-09T07:22:49.865Z,88.77
2022-10-09T07:26:54.693Z,88.66
2022-10-09T07:30:56.962Z,88.58
2022-10-09T07:34:58.856Z,88.80
2022-10-09T07:39:01.305Z,88.88
2022-10-09T07:43:03.167Z,88.74
2022-10-09T07:47:05.054Z,88.35
2022-10-09T07:51:21.994Z,88.11
2022-10-09T07:55:23.946Z,88.17
2022-10-09T07:59:25.817Z,88.51
2022-10-09T08:03:27.624Z,88.15
2022-10-09T08:07:34.821Z,87.79
2022-10-09T08:11:40.106Z,87.67
2022-10-09T08:15:43.207Z,87.69
2022-10-09T08:19:45.178Z,87.07
2022-10-09T08:23:47.101Z,87.12
2022-10-09T08:27:52.261Z,87.30
2022-10-09T08:31:54.148Z,86.70
2022-10-09T08:36:07.319Z,86.25
2022-10-09T08:40:16.817Z,85.90
2022-10-09T08:44:33.375Z,86.09
2022-10-09T08:48:43.911Z,85.68
2022-10-09T08:52:50.190Z,85.33
2022-10-09T08:56:52.678Z,85.06
2022-10-09T09:01:06.957Z,85.01
2022-10-09T09:05:36.449Z,85.15
2022-10-09T09:09:50.668Z,85.49
2022-10-09T09:14:21.543Z,85.21
2022-10-09T09:18:42.829Z,85.53
2022-10-09T09:22:48.557Z,85.59
2022-10-09T09:26:55.339Z,84.95
2022-10-09T09:31:12.781Z,84.70
2022-10-09T09:35:20.787Z,84.47
2022-10-09T09:40:08.327Z,84.86
2022-10-09T09:43:47.834Z,84.46
2022-10-09T09:48:04.175Z,84.44
2022-10-09T09:52:08.866Z,83.97
2022-10-09T09:56:10.876Z,83.15
2022-10-09T10:00:15.796Z,82.46
2022-10-09T10:04:20.233Z,82.35
2022-10-09T10:08:33.438Z,82.74
2022-10-09T10:13:02.421Z,82.84
2022-10-09T10:17:05.511Z,82.72
2022-10-09T10:21:12.392Z,82.52
2022-10-09T10:25:18.437Z,81.20
2022-10-09T10:29:27.127Z,81.21
2022-10-09T10:33:33.179Z,80.91
2022-10-09T10:37:46.687Z,81.09
2022-10-09T10:41:53.406Z,81.56
2022-10-09T10:46:56.967Z,81.58
2022-10-09T10:51:20.193Z,80.58
2022-10-09T10:55:52.582Z,80.56
2022-10-09T11:00:10.459Z,80.30
2022-10-09T11:04:32.926Z,80.46
2022-10-09T11:08:55.898Z,80.24
2022-10-09T11:13:03.393Z,80.37
2022-10-09T11:17:28.427Z,79.78
2022-10-09T11:21:55.032Z,79.77
2022-10-09T11:26:45.103Z,80.14
2022-10-09T11:31:02.919Z,80.05
2022-10-09T11:35:40.254Z,79.45
2022-10-09T11:39:43.136Z,79.24
2022-10-09T11:44:00.729Z,79.42
2022-10-09T11:48:12.442Z,79.55
2022-10-09T11:52:35.319Z,79.22
2022-10-09T11:56:37.304Z,77.70
2022-10-09T12:00:42.574Z,77.09
2022-10-09T12:05:01.078Z,78.11
2022-10-09T12:09:07.769Z,78.10
2022-10-09T12:13:29.645Z,77.74
2022-10-09T12:17:34.948Z,77.72
2022-10-09T12:21:45.405Z,77.29
2022-10-09T12:25:48.571Z,77.04
2022-10-09T12:29:55.495Z,76.71
2022-10-09T12:34:05.590Z,76.75
2022-10-09T12:38:26.741Z,76.89
2022-10-09T12:42:29.123Z,76.68
2022-10-09T12:46:35.842Z,76.82
2022-10-09T12:50:38.986Z,77.28
2022-10-09T12:54:43.856Z,77.24
2022-10-09T12:58:46.067Z,77.46
2022-10-09T13:02:48.507Z,77.29
2022-10-09T13:06:52.286Z,76.79
2022-10-09T13:10:55.069Z,77.06
2022-10-09T13:15:04.556Z,77.43
2022-10-09T13:19:23.980Z,77.76
2022-10-09T13:23:29.742Z,77.35
2022-10-09T13:27:35.015Z,77.13
2022-10-09T13:31:37.567Z,77.02
2022-10-09T13:35:39.548Z,77.03
2022-10-09T13:39:43.119Z,77.25
2022-10-09T13:43:45.733Z,77.12
2022-10-09T13:47:48.158Z,77.13
2022-10-09T13:51:50.439Z,77.29
2022-10-09T13:55:55.924Z,77.06
2022-10-09T13:59:59.772Z,77.37
2022-10-09T14:04:01.940Z,77.55
2022-10-09T14:08:04.380Z,77.54
2022-10-09T14:12:06.397Z,77.59
2022-10-09T14:16:10.538Z,77.45
2022-10-09T14:20:12.504Z,77.50
2022-10-09T14:24:15.064Z,77.32
2022-10-09T14:28:17.091Z,77.53
2022-10-09T14:32:19.095Z,77.61
2022-10-09T14:36:21.020Z,77.81
2022-10-09T14:40:22.913Z,77.75
2022-10-09T14:44:25.261Z,77.81
2022-10-09T14:48:27.082Z,77.91
2022-10-09T14:52:29.002Z,78.18
2022-10-09T14:56:31.224Z,78.34
2022-10-09T15:00:33.141Z,78.32
2022-10-09T15:04:35.039Z,78.24
2022-10-09T15:08:40.300Z,78.51
2022-10-09T15:12:42.129Z,78.53
2022-10-09T15:16:44.440Z,78.74
2022-10-09T15:20:46.550Z,79.11
2022-10-09T15:24:49.110Z,79.01
2022-10-09T15:28:51.125Z,78.79
2022-10-09T15:32:53.161Z,78.68
2022-10-09T15:36:55.067Z,78.80
2022-10-09T15:40:57.047Z,78.57
2022-10-09T15:44:59.573Z,78.49
2022-10-09T15:49:01.553Z,78.22
2022-10-09T15:53:10.086Z,78.07
2022-10-09T15:57:12.270Z,78.18
2022-10-09T16:01:16.902Z,78.22
2022-10-09T16:05:19.485Z,78.22
2022-10-09T16:09:21.577Z,78.48
2022-10-09T16:13:26.266Z,78.87
2022-10-09T16:17:28.077Z,79.01
2022-10-09T16:21:30.091Z,78.92
2022-10-09T16:25:32.644Z,78.33
2022-10-09T16:29:35.561Z,78.32
2022-10-09T16:33:37.623Z,78.25
2022-10-09T16:37:39.520Z,78.21
2022-10-09T16:41:42.173Z,78.36
2022-10-09T16:45:44.962Z,78.56
2022-10-09T16:49:47.005Z,78.52
2022-10-09T16:53:53.528Z,78.78
2022-10-09T16:57:55.997Z,79.17
2022-10-09T17:01:59.818Z,79.25
2022-10-09T17:06:05.896Z,79.23
2022-10-09T17:10:09.067Z,79.25
2022-10-09T17:14:11.647Z,78.63
2022-10-09T17:18:13.525Z,78.59
2022-10-09T17:22:15.367Z,78.49
2022-10-09T17:26:19.090Z,78.47
2022-10-09T17:30:21.484Z,79.12
2022-10-09T17:34:23.615Z,79.44
2022-10-09T17:38:25.735Z,79.32
2022-10-09T17:42:27.555Z,79.24
2022-10-09T17:46:30.259Z,79.27
2022-10-09T17:50:32.594Z,79.12
2022-10-09T17:54:34.567Z,79.02
2022-10-09T17:58:36.716Z,79.57
2022-10-09T18:02:38.645Z,79.98
2022-10-09T18:06:41.075Z,79.87
2022-10-09T18:10:43.571Z,79.40
2022-10-09T18:14:46.146Z,80.04
2022-10-09T18:18:48.652Z,80.42
2022-10-09T18:22:50.521Z,80.57
2022-10-09T18:26:59.461Z,80.47
2022-10-09T18:31:13.968Z,79.94
2022-10-09T18:35:16.298Z,80.26
2022-10-09T18:39:20.985Z,80.60
2022-10-09T18:43:22.942Z,80.25
2022-10-09T18:47:28.128Z,80.10
2022-10-09T18:51:31.399Z,80.51
2022-10-09T18:55:33.623Z,80.65
2022-10-09T18:59:37.633Z,80.55
2022-10-09T19:03:44.774Z,80.59
2022-10-09T19:07:49.661Z,80.48
2022-10-09T19:11:52.237Z,80.55
2022-10-09T19:15:58.200Z,80.58
2022-10-09T19:20:00.675Z,81.09
2022-10-09T19:24:05.642Z,81.21
2022-10-09T19:28:07.513Z,80.93
2022-10-09T19:32:09.417Z,81.28
2022-10-09T19:36:13.218Z,81.34
2022-10-09T19:40:15.176Z,81.06
2022-10-09T19:44:17.435Z,81.27
2022-10-09T19:48:19.960Z,81.57
2022-10-09T19:52:22.785Z,81.43
2022-10-09T19:56:27.130Z,80.87
2022-10-09T20:00:29.532Z,80.96
2022-10-09T20:04:31.749Z,81.01
2022-10-09T20:08:34.201Z,81.08
2022-10-09T20:12:36.128Z,81.17
2022-10-09T20:16:38.113Z,81.07
2022-10-09T20:20:46.414Z,81.49
2022-10-09T20:24:48.281Z,81.79
2022-10-09T20:28:53.452Z,81.14
2022-10-09T20:32:58.994Z,81.54
2022-10-09T20:37:01.247Z,81.87
2022-10-09T20:41:06.245Z,81.59
2022-10-09T20:45:08.372Z,81.65
2022-10-09T20:49:12.845Z,82.22
2022-10-09T20:53:16.248Z,82.13
2022-10-09T20:57:18.144Z,81.78
2022-10-09T21:01:21.046Z,81.17
2022-10-09T21:05:23.149Z,81.45
2022-10-09T21:09:27.482Z,81.37
2022-10-09T21:13:31.480Z,81.30
2022-10-09T21:17:33.380Z,81.45
2022-10-09T21:21:35.561Z,81.51
2022-10-09T21:25:38.059Z,81.44
2022-10-09T21:29:39.914Z,81.41
2022-10-09T21:33:42.216Z,82.08
2022-10-09T21:37:44.248Z,82.02
2022-10-09T21:41:46.289Z,81.45
2022-10-09T21:45:51.543Z,81.56
2022-10-09T21:49:53.505Z,82.17
2022-10-09T21:53:55.458Z,82.86
2022-10-09T21:57:57.384Z,82.82
2022-10-09T22:01:59.268Z,82.86
2022-10-09T22:06:06.119Z,82.59
2022-10-09T22:10:08.340Z,82.03
2022-10-09T22:14:10.168Z,81.35
2022-10-09T22:18:12.297Z,81.83
2022-10-09T22:22:14.319Z,82.46
2022-10-09T22:26:19.041Z,82.51
2022-10-09T22:30:20.837Z,82.74
2022-10-09T22:34:22.770Z,82.80
2022-10-09T22:38:24.621Z,82.72
2022-10-09T22:42:26.436Z,82.58
2022-10-09T22:46:31.754Z,82.62
2022-10-09T22:50:36.457Z,82.38
2022-10-09T22:54:38.268Z,82.57
2022-10-09T22:58:40.142Z,82.20
2022-10-09T23:02:41.968Z,82.02
2022-10-09T23:06:45.034Z,81.90
2022-10-09T23:10:46.830Z,82.39
2022-10-09T23:14:48.711Z,82.28
2022-10-09T23:18:50.994Z,82.87
2022-10-09T23:22:53.545Z,82.88
2022-10-09T23:26:55.401Z,82.71
2022-10-09T23:31:05.102Z,82.60
2022-10-09T23:35:07.327Z,82.11
2022-10-09T23:39:09.362Z,81.82
2022-10-09T23:43:11.141Z,81.96
2022-10-09T23:47:12.965Z,82.03
2022-10-09T23:51:15.315Z,82.22
2022-10-09T23:55:17.166Z,82.52
2022-10-09T23:59:19.591Z,82.44
